Time;durP1;ratioP1;P1;durP2;ratioP2;P2;SDS_P1;SDS_P2;PMS_P1;PMS_P2;Temp;Humidity;BMP_temperature;BMP_pressure;BME280_temperature;BME280_humidity;BME280_pressure;Samples;Min_cycle;Max_cycle;Signal;HPM_P1;HPM_P2
2023/03/12 00:01:28;;;;;;;1.10;0.73;;;22.50;46.10;;;;;;4982920;28;20026;-64
2023/03/12 00:03:54;;;;;;;1.30;0.80;;;22.50;46.10;;;;;;4981576;28;20585;-64
2023/03/12 00:06:20;;;;;;;1.60;0.90;;;22.50;46.10;;;;;;4985888;28;20018;-64
2023/03/12 00:08:47;;;;;;;1.25;0.70;;;22.40;46.00;;;;;;4989393;28;20061;-64
2023/03/12 00:11:16;;;;;;;1.65;0.80;;;22.40;46.00;;;;;;4988838;28;20057;-64
2023/03/12 00:13:42;;;;;;;0.98;0.70;;;22.40;46.00;;;;;;4984371;28;20443;-64
2023/03/12 00:16:13;;;;;;;0.88;0.75;;;22.40;46.00;;;;;;4985705;28;20058;-64
2023/03/12 00:18:40;;;;;;;1.05;0.70;;;22.30;46.00;;;;;;4985063;28;20058;-64
2023/03/12 00:21:07;;;;;;;1.10;0.80;;;22.30;45.90;;;;;;4985247;28;20030;-65
2023/03/12 00:23:34;;;;;;;0.90;0.70;;;22.30;45.90;;;;;;4985668;28;20058;-64
2023/03/12 00:26:01;;;;;;;1.30;0.80;;;22.30;45.90;;;;;;4983579;28;20034;-65
2023/03/12 00:28:27;;;;;;;1.83;0.90;;;22.30;45.90;;;;;;4983166;28;20586;-65
2023/03/12 00:30:53;;;;;;;1.15;0.77;;;22.30;45.90;;;;;;4984591;28;20031;-65
2023/03/12 00:33:19;;;;;;;1.30;0.80;;;22.30;45.90;;;;;;4988568;28;20031;-65
2023/03/12 00:35:45;;;;;;;1.40;0.80;;;22.30;46.00;;;;;;4983357;28;20105;-65
2023/03/12 00:38:10;;;;;;;1.48;1.05;;;22.20;45.90;;;;;;4981749;28;20023;-65
2023/03/12 00:40:38;;;;;;;1.17;0.80;;;22.20;45.90;;;;;;4983456;28;20045;-65
2023/03/12 00:43:04;;;;;;;1.20;0.73;;;22.20;45.90;;;;;;4982231;28;20030;-64
2023/03/12 00:45:29;;;;;;;1.33;0.80;;;22.20;45.90;;;;;;4983478;28;20026;-65
2023/03/12 00:47:55;;;;;;;1.65;0.80;;;22.20;45.90;;;;;;4984232;28;20038;-65
2023/03/12 00:50:21;;;;;;;1.35;0.90;;;22.20;45.90;;;;;;4986450;28;20106;-65
2023/03/12 00:52:46;;;;;;;1.55;0.80;;;22.10;45.90;;;;;;4984936;28;20492;-65
2023/03/12 00:55:12;;;;;;;1.10;0.70;;;22.10;45.90;;;;;;4981248;28;20022;-64
2023/03/12 00:57:38;;;;;;;1.33;0.85;;;22.10;45.90;;;;;;4983716;28;20034;-64
2023/03/12 01:00:09;;;;;;;1.15;0.65;;;22.10;45.90;;;;;;4984130;28;20478;-64
2023/03/12 01:02:35;;;;;;;1.60;1.15;;;22.10;45.90;;;;;;4985554;28;20229;-64
2023/03/12 01:05:01;;;;;;;1.27;0.80;;;22.10;45.90;;;;;;4986138;28;20101;-63
2023/03/12 01:07:27;;;;;;;2.00;0.90;;;22.10;45.90;;;;;;4984462;28;20037;-63
2023/03/12 01:09:53;;;;;;;1.02;0.75;;;22.00;45.80;;;;;;4985510;28;20086;-63
2023/03/12 01:12:18;;;;;;;1.60;0.70;;;22.00;45.80;;;;;;4980138;28;20030;-64
2023/03/12 01:14:44;;;;;;;1.13;0.80;;;22.00;45.80;;;;;;4980626;28;20053;-63
2023/03/12 01:17:10;;;;;;;1.50;0.90;;;22.00;45.80;;;;;;4981896;28;20018;-63
2023/03/12 01:19:36;;;;;;;1.55;0.73;;;22.00;45.80;;;;;;4984041;28;20081;-63
2023/03/12 01:22:01;;;;;;;1.08;0.70;;;21.90;45.80;;;;;;4984592;28;20030;-63
2023/03/12 01:24:27;;;;;;;1.00;0.73;;;21.90;45.80;;;;;;4985186;28;20026;-63
2023/03/12 01:26:53;;;;;;;0.90;0.65;;;21.90;45.80;;;;;;4985854;28;20043;-64
2023/03/12 01:29:18;;;;;;;1.42;0.80;;;21.90;45.90;;;;;;4980445;28;20034;-63
2023/03/12 01:31:44;;;;;;;1.65;0.80;;;21.90;45.90;;;;;;4987598;28;20061;-64
2023/03/12 01:34:11;;;;;;;0.80;0.68;;;21.90;45.90;;;;;;4982079;28;20026;-63
2023/03/12 01:36:37;;;;;;;1.50;0.90;;;21.80;45.80;;;;;;4985134;28;20073;-63
2023/03/12 01:39:03;;;;;;;1.25;0.70;;;21.80;45.90;;;;;;4981962;28;20475;-63
2023/03/12 01:41:33;;;;;;;0.70;0.70;;;21.80;45.90;;;;;;4982143;28;20102;-63
2023/03/12 01:44:02;;;;;;;1.02;0.80;;;21.80;45.90;;;;;;4984429;28;20026;-64
2023/03/12 01:46:37;;;;;;;1.10;0.70;;;21.80;45.90;;;;;;4983873;28;20048;-63
2023/03/12 01:49:26;;;;;;;1.20;0.70;;;21.80;45.90;;;;;;4982733;28;20049;-64
2023/03/12 01:52:00;;;;;;;0.80;0.70;;;21.80;45.90;;;;;;4978898;28;20089;-63
2023/03/12 01:54:43;;;;;;;1.20;0.70;;;21.70;45.90;;;;;;4984402;28;20102;-63
2023/03/12 01:57:14;;;;;;;1.15;0.70;;;21.70;45.90;;;;;;4981956;28;20027;-63
2023/03/12 01:59:45;;;;;;;1.05;0.70;;;21.70;45.90;;;;;;4984290;28;20030;-63
2023/03/12 02:02:13;;;;;;;1.13;0.70;;;21.70;45.90;;;;;;4981238;28;20129;-63
2023/03/12 02:04:40;;;;;;;0.93;0.73;;;21.70;46.00;;;;;;4983423;28;20501;-63
2023/03/12 02:07:14;;;;;;;0.90;0.60;;;21.60;45.90;;;;;;4981663;28;20022;-62
2023/03/12 02:09:47;;;;;;;1.13;0.70;;;21.60;45.90;;;;;;4984053;28;20034;-63
2023/03/12 02:12:14;;;;;;;1.38;0.70;;;21.60;46.00;;;;;;4979790;28;20491;-63
2023/03/12 02:14:40;;;;;;;1.15;0.70;;;21.60;46.00;;;;;;4982066;28;20030;-62
2023/03/12 02:17:07;;;;;;;0.80;0.60;;;21.60;46.00;;;;;;4981919;28;20368;-62
2023/03/12 02:19:48;;;;;;;1.02;0.70;;;21.60;46.00;;;;;;4982546;28;20526;-61
2023/03/12 02:22:15;;;;;;;1.00;0.70;;;21.60;46.00;;;;;;4981629;28;20483;-62
2023/03/12 02:25:11;;;;;;;0.98;0.77;;;21.60;46.50;;;;;;4982669;28;20034;-63
2023/03/12 02:27:38;;;;;;;0.80;0.60;;;21.50;46.00;;;;;;4984423;28;20479;-62
2023/03/12 02:30:04;;;;;;;0.88;0.60;;;21.50;46.00;;;;;;4985370;28;20034;-63
2023/03/12 02:32:35;;;;;;;1.05;0.73;;;21.50;46.00;;;;;;4982109;28;20050;-61
2023/03/12 02:35:02;;;;;;;0.90;0.70;;;21.50;46.10;;;;;;4982228;28;20394;-63
2023/03/12 02:37:27;;;;;;;1.30;0.88;;;21.50;46.10;;;;;;4983330;28;20035;-63
2023/03/12 02:40:11;;;;;;;1.08;0.70;;;21.50;46.10;;;;;;4982009;28;20037;-63
2023/03/12 02:42:37;;;;;;;1.02;0.80;;;21.50;46.10;;;;;;4981338;28;20061;-62
2023/03/12 02:45:03;;;;;;;1.30;0.80;;;21.50;46.10;;;;;;4983345;28;20077;-63
2023/03/12 02:47:29;;;;;;;0.85;0.60;;;21.40;46.00;;;;;;4981950;28;20561;-63
2023/03/12 02:49:55;;;;;;;0.90;0.70;;;21.40;46.10;;;;;;4998068;28;20486;-62
2023/03/12 02:52:20;;;;;;;1.20;0.70;;;21.40;46.10;;;;;;4980747;28;20038;-62
2023/03/12 02:54:46;;;;;;;0.70;0.65;;;21.40;46.10;;;;;;4984007;28;20038;-63
2023/03/12 02:57:12;;;;;;;0.82;0.63;;;21.40;46.10;;;;;;4984258;28;20105;-62
2023/03/12 02:59:37;;;;;;;1.02;0.70;;;21.40;46.10;;;;;;4982820;28;20348;-63
2023/03/12 03:02:03;;;;;;;0.80;0.70;;;21.30;46.00;;;;;;4997297;28;20038;-63
2023/03/12 03:04:30;;;;;;;0.85;0.60;;;21.40;46.10;;;;;;4978793;28;20027;-62
2023/03/12 03:06:56;;;;;;;1.50;0.80;;;21.30;46.10;;;;;;4981872;28;20166;-63
2023/03/12 03:09:23;;;;;;;0.90;0.70;;;21.30;46.10;;;;;;4984475;28;20057;-62
2023/03/12 03:11:49;;;;;;;0.70;0.60;;;21.30;46.10;;;;;;4981870;28;20531;-63
2023/03/12 03:14:15;;;;;;;0.95;0.70;;;21.30;46.10;;;;;;4981620;28;20034;-62
2023/03/12 03:16:41;;;;;;;0.80;0.65;;;21.30;46.10;;;;;;4981815;28;20027;-63
2023/03/12 03:19:07;;;;;;;0.88;0.68;;;21.30;46.10;;;;;;4982607;28;20431;-62
2023/03/12 03:21:33;;;;;;;0.60;0.60;;;21.30;46.20;;;;;;4981079;28;20031;-63
2023/03/12 03:23:59;;;;;;;1.10;0.70;;;21.30;46.20;;;;;;4980035;28;20105;-62
2023/03/12 03:26:25;;;;;;;0.80;0.60;;;21.20;46.10;;;;;;4978493;28;20717;-63
2023/03/12 03:28:51;;;;;;;1.65;0.80;;;21.20;46.10;;;;;;4980566;28;20479;-63
2023/03/12 03:31:16;;;;;;;0.90;0.70;;;21.20;46.20;;;;;;4983951;28;20080;-63
2023/03/12 03:33:43;;;;;;;0.68;0.60;;;21.20;46.20;;;;;;4984976;28;20026;-62
2023/03/12 03:36:09;;;;;;;1.02;0.70;;;21.20;46.20;;;;;;4980635;28;20462;-62
2023/03/12 03:38:36;;;;;;;0.90;0.70;;;21.20;46.20;;;;;;4980858;28;20026;-62
2023/03/12 03:41:02;;;;;;;1.00;0.80;;;21.20;46.20;;;;;;4981304;28;20542;-63
2023/03/12 03:43:28;;;;;;;0.75;0.60;;;21.20;46.20;;;;;;4985942;28;20094;-63
2023/03/12 03:46:04;;;;;;;0.85;0.68;;;21.20;46.20;;;;;;4982921;28;20474;-63
2023/03/12 03:48:30;;;;;;;0.68;0.60;;;21.20;46.20;;;;;;4985501;28;20053;-63
2023/03/12 03:51:00;;;;;;;0.60;0.60;;;21.10;46.50;;;;;;4983318;28;20034;-63
2023/03/12 03:53:26;;;;;;;0.98;0.60;;;21.10;46.20;;;;;;4985754;28;20062;-62
2023/03/12 03:55:52;;;;;;;0.93;0.68;;;21.10;46.20;;;;;;4986068;28;20097;-63
2023/03/12 03:58:17;;;;;;;0.70;0.70;;;21.10;46.20;;;;;;4985292;28;20430;-63
2023/03/12 04:00:44;;;;;;;0.73;0.60;;;21.10;46.20;;;;;;4985210;28;20027;-63
2023/03/12 04:03:10;;;;;;;0.70;0.63;;;21.10;46.20;;;;;;4983939;28;20022;-62
2023/03/12 04:05:36;;;;;;;1.00;0.70;;;21.10;46.30;;;;;;4986539;28;20031;-62
2023/03/12 04:08:02;;;;;;;0.60;0.57;;;21.10;46.30;;;;;;4984599;28;20374;-63
2023/03/12 04:10:28;;;;;;;0.95;0.70;;;21.10;46.30;;;;;;4986706;28;20078;-62
2023/03/12 04:12:54;;;;;;;1.15;0.73;;;21.10;46.30;;;;;;4985006;28;20111;-63
2023/03/12 04:15:20;;;;;;;0.50;0.50;;;21.00;46.30;;;;;;4985340;28;20433;-62
2023/03/12 04:17:46;;;;;;;1.00;0.70;;;21.00;46.30;;;;;;4985122;28;20035;-62
2023/03/12 04:20:12;;;;;;;0.82;0.70;;;21.00;46.30;;;;;;4983080;28;20031;-63
2023/03/12 04:22:37;;;;;;;1.00;0.75;;;21.10;46.30;;;;;;4983956;28;20157;-62
2023/03/12 04:25:06;;;;;;;1.05;0.70;;;21.00;46.30;;;;;;4985769;28;20045;-63
2023/03/12 04:27:32;;;;;;;0.85;0.65;;;21.00;46.40;;;;;;4984051;28;20026;-62
2023/03/12 04:29:58;;;;;;;1.00;0.63;;;21.00;46.30;;;;;;4985118;28;20030;-63
2023/03/12 04:32:23;;;;;;;0.50;0.50;;;21.00;46.30;;;;;;4982441;28;20053;-62
2023/03/12 04:34:49;;;;;;;0.77;0.60;;;21.00;46.30;;;;;;4983987;28;20035;-62
2023/03/12 04:37:15;;;;;;;0.85;0.60;;;21.00;46.40;;;;;;4985564;28;20070;-62
2023/03/12 04:39:42;;;;;;;0.85;0.70;;;21.00;46.40;;;;;;4989037;28;20041;-62
2023/03/12 04:42:09;;;;;;;1.15;0.68;;;21.00;46.40;;;;;;4982922;28;20053;-63
2023/03/12 04:44:35;;;;;;;0.95;0.73;;;21.00;46.40;;;;;;4986052;28;20029;-62
2023/03/12 04:47:02;;;;;;;0.98;0.60;;;21.00;46.40;;;;;;4982821;28;20026;-63
2023/03/12 04:49:27;;;;;;;1.25;0.70;;;21.00;46.40;;;;;;4983050;28;20026;-62
2023/03/12 04:51:54;;;;;;;1.58;0.80;;;20.90;46.40;;;;;;4982396;28;20049;-62
2023/03/12 04:54:20;;;;;;;0.80;0.60;;;20.90;46.40;;;;;;4982554;28;20027;-62
2023/03/12 04:56:46;;;;;;;1.02;0.60;;;20.90;46.40;;;;;;4983337;28;20050;-62
2023/03/12 04:59:13;;;;;;;1.75;0.68;;;20.90;46.40;;;;;;4984700;28;20031;-62
2023/03/12 05:01:39;;;;;;;1.13;0.80;;;20.90;46.40;;;;;;4983688;28;20458;-63
2023/03/12 05:04:05;;;;;;;0.82;0.70;;;20.90;46.40;;;;;;4984699;28;20494;-63
2023/03/12 05:06:31;;;;;;;0.93;0.60;;;20.90;46.40;;;;;;4985119;28;20105;-62
2023/03/12 05:08:57;;;;;;;0.63;0.60;;;20.90;46.40;;;;;;4983885;28;20102;-62
2023/03/12 05:11:24;;;;;;;0.93;0.70;;;20.90;46.40;;;;;;4984554;28;20031;-62
2023/03/12 05:13:50;;;;;;;0.93;0.70;;;20.90;46.40;;;;;;4986156;28;20022;-62
2023/03/12 05:16:16;;;;;;;1.30;0.70;;;20.90;46.40;;;;;;4982806;28;20023;-63
2023/03/12 05:18:42;;;;;;;0.60;0.60;;;20.90;46.40;;;;;;4982731;28;20527;-62
2023/03/12 05:21:12;;;;;;;0.95;0.80;;;20.90;46.40;;;;;;4983603;28;20037;-62
2023/03/12 05:23:38;;;;;;;;;;;20.90;46.40;;;;;;4985101;28;20023;-62
2023/03/12 05:26:05;;;;;;;0.60;0.60;;;20.90;46.40;;;;;;4983017;28;19952;-62
2023/03/12 05:28:32;;;;;;;1.13;0.80;;;20.90;46.40;;;;;;4982606;28;20113;-62
2023/03/12 05:30:59;;;;;;;0.77;0.77;;;20.80;46.40;;;;;;4981127;28;20061;-62
2023/03/12 05:33:26;;;;;;;0.57;0.57;;;20.90;46.50;;;;;;4982344;28;20110;-62
2023/03/12 05:35:52;;;;;;;0.93;0.70;;;20.90;46.50;;;;;;4982139;28;20062;-63
2023/03/12 05:38:18;;;;;;;0.68;0.60;;;20.80;46.50;;;;;;4982416;28;20529;-62
2023/03/12 05:40:52;;;;;;;0.80;0.70;;;20.80;46.50;;;;;;4983291;28;20103;-63
2023/03/12 05:43:17;;;;;;;1.67;0.70;;;20.80;46.50;;;;;;4982245;28;20023;-63
2023/03/12 05:45:43;;;;;;;0.80;0.70;;;20.90;46.60;;;;;;4983833;28;20101;-63
2023/03/12 05:48:09;;;;;;;0.90;0.60;;;20.80;46.50;;;;;;4981782;28;20478;-63
2023/03/12 05:50:34;;;;;;;1.00;0.70;;;20.80;46.50;;;;;;4982923;28;20026;-63
2023/03/12 05:53:00;;;;;;;0.77;0.60;;;20.80;46.50;;;;;;4981687;28;20066;-63
2023/03/12 05:55:26;;;;;;;0.80;0.60;;;20.80;46.60;;;;;;4983419;28;20026;-63
2023/03/12 05:57:52;;;;;;;0.98;0.75;;;20.80;46.50;;;;;;4982185;28;20101;-63
2023/03/12 06:00:18;;;;;;;0.82;0.70;;;20.80;46.60;;;;;;4982448;28;20042;-63
2023/03/12 06:02:44;;;;;;;0.98;0.70;;;20.80;46.60;;;;;;4984940;28;20031;-64
2023/03/12 06:05:11;;;;;;;0.77;0.63;;;20.80;46.50;;;;;;4983976;28;20089;-63
2023/03/12 06:07:37;;;;;;;1.00;0.68;;;20.80;46.60;;;;;;4982185;28;20042;-63
2023/03/12 06:10:03;;;;;;;0.60;0.60;;;20.80;46.60;;;;;;4984305;28;20482;-64
2023/03/12 06:12:29;;;;;;;0.93;0.60;;;20.80;46.60;;;;;;4984898;28;20525;-64
2023/03/12 06:14:57;;;;;;;1.33;0.70;;;20.80;46.60;;;;;;4985333;28;20117;-63
2023/03/12 06:17:22;;;;;;;0.80;0.63;;;20.80;46.60;;;;;;4982613;28;20037;-63
2023/03/12 06:19:52;;;;;;;0.57;0.50;;;20.80;46.60;;;;;;4977918;28;20089;-63
2023/03/12 06:22:18;;;;;;;0.65;0.60;;;20.80;46.60;;;;;;4984988;28;20411;-63
2023/03/12 06:24:46;;;;;;;0.88;0.60;;;20.80;46.60;;;;;;4983929;28;20030;-64
2023/03/12 06:27:13;;;;;;;0.82;0.63;;;20.70;46.50;;;;;;4982878;28;20030;-62
2023/03/12 06:29:39;;;;;;;0.80;0.70;;;20.70;46.60;;;;;;4983756;28;20027;-63
2023/03/12 06:32:04;;;;;;;0.98;0.70;;;20.80;46.60;;;;;;4979086;28;20022;-63
2023/03/12 06:34:30;;;;;;;0.73;0.70;;;20.70;46.50;;;;;;4984161;28;20399;-63
2023/03/12 06:36:56;;;;;;;0.50;0.50;;;20.70;46.60;;;;;;4983955;28;20035;-63
2023/03/12 06:39:22;;;;;;;0.73;0.65;;;20.70;46.60;;;;;;4979280;28;20035;-63
2023/03/12 06:41:48;;;;;;;0.75;0.60;;;20.70;46.60;;;;;;4995805;28;20027;-63
2023/03/12 06:44:13;;;;;;;0.68;0.60;;;20.70;46.60;;;;;;4983253;28;20033;-63
2023/03/12 06:46:40;;;;;;;0.80;0.60;;;20.70;46.60;;;;;;4979656;28;20042;-63
2023/03/12 06:49:06;;;;;;;0.60;0.60;;;20.70;46.70;;;;;;4980524;28;20507;-62
2023/03/12 06:51:31;;;;;;;0.75;0.63;;;20.70;46.70;;;;;;4982508;28;20042;-63
2023/03/12 06:53:59;;;;;;;1.40;0.60;;;20.70;46.70;;;;;;4982720;28;20031;-63
2023/03/12 06:56:25;;;;;;;0.68;0.60;;;20.70;46.70;;;;;;4980914;28;20402;-62
2023/03/12 06:58:51;;;;;;;0.75;0.60;;;20.70;46.70;;;;;;4980512;28;20027;-63
2023/03/12 07:01:16;;;;;;;0.70;0.70;;;20.70;46.70;;;;;;4980293;28;20060;-63
2023/03/12 07:03:42;;;;;;;0.93;0.70;;;20.70;46.70;;;;;;4981491;28;20034;-63
2023/03/12 07:06:16;;;;;;;1.17;0.80;;;20.70;46.70;;;;;;4981718;28;20057;-64
2023/03/12 07:08:42;;;;;;;0.85;0.60;;;20.70;46.80;;;;;;4981070;28;20081;-63
2023/03/12 07:11:09;;;;;;;1.15;0.77;;;20.70;46.70;;;;;;4981411;28;20030;-63
2023/03/12 07:13:35;;;;;;;0.85;0.80;;;20.70;46.80;;;;;;4982742;28;20088;-64
2023/03/12 07:16:01;;;;;;;0.80;0.60;;;20.70;46.80;;;;;;4984813;28;20109;-63
2023/03/12 07:18:27;;;;;;;0.70;0.60;;;20.70;46.80;;;;;;4986842;28;20037;-63
2023/03/12 07:20:53;;;;;;;0.73;0.60;;;20.70;46.80;;;;;;4991086;28;20035;-63
2023/03/12 07:23:19;;;;;;;0.90;0.70;;;20.70;46.80;;;;;;4985459;28;20053;-64
2023/03/12 07:25:46;;;;;;;0.80;0.70;;;20.70;46.80;;;;;;4985654;28;20121;-63
2023/03/12 07:28:13;;;;;;;0.80;0.60;;;20.70;46.80;;;;;;4985203;28;20033;-63
2023/03/12 07:30:39;;;;;;;0.80;0.70;;;20.70;46.90;;;;;;4984138;28;20038;-63
2023/03/12 07:33:08;;;;;;;1.05;0.80;;;20.70;46.90;;;;;;4988483;28;20030;-63
2023/03/12 07:35:34;;;;;;;0.75;0.60;;;20.70;46.90;;;;;;4984556;28;20485;-63
2023/03/12 07:38:00;;;;;;;1.05;0.77;;;20.60;46.80;;;;;;4983075;28;20371;-63
2023/03/12 07:40:26;;;;;;;0.93;0.80;;;20.60;46.80;;;;;;4985229;28;20030;-63
2023/03/12 07:42:52;;;;;;;1.35;0.80;;;20.60;46.80;;;;;;4984309;28;20030;-63
2023/03/12 07:45:19;;;;;;;0.95;0.70;;;20.60;46.90;;;;;;4985403;28;20467;-63
2023/03/12 07:47:45;;;;;;;0.90;0.80;;;20.60;46.90;;;;;;4986280;28;20359;-63
2023/03/12 07:50:11;;;;;;;0.77;0.68;;;20.60;46.90;;;;;;4984213;28;20388;-63
2023/03/12 07:52:37;;;;;;;0.95;0.70;;;20.60;46.90;;;;;;4984280;28;20478;-63
2023/03/12 07:55:03;;;;;;;0.70;0.70;;;20.60;46.90;;;;;;4982735;28;20037;-63
2023/03/12 07:57:29;;;;;;;0.82;0.70;;;20.60;46.90;;;;;;4987164;28;20085;-63
2023/03/12 07:59:55;;;;;;;0.80;0.70;;;20.60;46.90;;;;;;4984971;28;20069;-63
2023/03/12 08:02:20;;;;;;;1.08;0.70;;;20.60;46.90;;;;;;4982513;28;20589;-64
2023/03/12 08:04:46;;;;;;;1.17;0.80;;;20.60;46.90;;;;;;5000072;28;20043;-63
2023/03/12 08:07:13;;;;;;;0.77;0.70;;;20.60;46.90;;;;;;4984144;28;20026;-64
2023/03/12 08:09:38;;;;;;;1.02;0.73;;;20.60;47.00;;;;;;4984076;28;20035;-63
2023/03/12 08:12:06;;;;;;;1.38;0.77;;;20.60;47.00;;;;;;4984044;28;20030;-63
2023/03/12 08:14:32;;;;;;;1.30;0.73;;;20.60;47.00;;;;;;4985745;28;20037;-64
2023/03/12 08:16:58;;;;;;;0.95;0.70;;;20.60;47.00;;;;;;4986348;28;20034;-64
2023/03/12 08:19:24;;;;;;;0.98;0.70;;;20.60;47.00;;;;;;4985022;28;20602;-64
2023/03/12 08:21:52;;;;;;;0.73;0.65;;;20.60;47.10;;;;;;4984972;28;20031;-64
2023/03/12 08:24:19;;;;;;;0.75;0.70;;;20.60;47.10;;;;;;4985038;28;20457;-64
2023/03/12 08:26:44;;;;;;;1.15;0.70;;;20.60;47.10;;;;;;4981115;28;20541;-64
2023/03/12 08:29:10;;;;;;;0.70;0.70;;;20.60;47.10;;;;;;4981288;28;20035;-64
2023/03/12 08:31:36;;;;;;;0.65;0.60;;;20.60;47.10;;;;;;4980642;28;20385;-64
2023/03/12 08:34:02;;;;;;;0.90;0.70;;;20.50;47.10;;;;;;4982411;28;20042;-64
2023/03/12 08:36:27;;;;;;;1.15;0.70;;;20.50;47.10;;;;;;4996825;28;20153;-64
2023/03/12 08:38:53;;;;;;;0.70;0.57;;;20.50;47.10;;;;;;4986521;28;20054;-64
2023/03/12 08:41:19;;;;;;;0.63;0.52;;;20.50;47.10;;;;;;4986555;28;20022;-64
2023/03/12 08:43:45;;;;;;;0.70;0.70;;;20.50;47.10;;;;;;4986087;28;20074;-64
2023/03/12 08:46:11;;;;;;;1.17;0.60;;;20.50;47.70;;;;;;4985758;28;20466;-64
2023/03/12 08:48:37;;;;;;;0.60;0.60;;;20.50;47.20;;;;;;4985240;28;20589;-64
2023/03/12 08:51:04;;;;;;;0.85;0.60;;;20.50;47.20;;;;;;4982106;28;20035;-64
2023/03/12 08:53:32;;;;;;;0.95;0.60;;;20.50;47.20;;;;;;4983354;28;20038;-64
2023/03/12 08:55:58;;;;;;;0.80;0.60;;;20.50;47.70;;;;;;4984187;28;20478;-64
2023/03/12 08:58:25;;;;;;;1.33;0.68;;;20.50;47.20;;;;;;4984989;28;20033;-64
2023/03/12 09:00:52;;;;;;;1.00;0.70;;;20.50;47.30;;;;;;4984044;28;20051;-64
2023/03/12 09:03:20;;;;;;;0.90;0.70;;;20.50;47.30;;;;;;4982042;28;20442;-64
2023/03/12 09:06:13;;;;;;;0.60;0.60;;;20.50;47.30;;;;;;4985670;28;20026;-64
2023/03/12 09:08:39;;;;;;;1.33;0.70;;;20.50;47.30;;;;;;4983928;28;20478;-64
2023/03/12 09:11:07;;;;;;;1.05;0.70;;;20.50;47.30;;;;;;4983246;28;20350;-64
2023/03/12 09:13:33;;;;;;;0.80;0.70;;;20.50;47.40;;;;;;4983961;28;20471;-64
2023/03/12 09:16:01;;;;;;;1.00;0.70;;;20.50;47.40;;;;;;4983904;28;20505;-65
2023/03/12 09:18:27;;;;;;;0.98;0.70;;;20.50;47.40;;;;;;4983090;28;20031;-64
2023/03/12 09:20:54;;;;;;;0.75;0.60;;;20.40;47.40;;;;;;4984982;28;20019;-64
2023/03/12 09:23:19;;;;;;;0.80;0.70;;;20.40;47.40;;;;;;4982757;28;20572;-64
2023/03/12 09:25:46;;;;;;;0.82;0.70;;;20.40;47.40;;;;;;4985142;28;20042;-64
2023/03/12 09:28:12;;;;;;;0.70;0.70;;;20.40;47.40;;;;;;4984217;28;20078;-64
2023/03/12 09:30:38;;;;;;;1.20;0.70;;;20.40;47.50;;;;;;4981888;28;20383;-65
2023/03/12 09:33:04;;;;;;;0.93;0.63;;;20.40;47.50;;;;;;4981079;28;20033;-65
2023/03/12 09:35:32;;;;;;;0.90;0.70;;;20.40;47.50;;;;;;4986353;28;20512;-65
2023/03/12 09:37:58;;;;;;;1.08;0.70;;;20.40;47.50;;;;;;4986971;28;20364;-65
2023/03/12 09:40:28;;;;;;;1.15;0.73;;;20.40;47.50;;;;;;4982768;28;20034;-64
2023/03/12 09:43:01;;;;;;;1.10;0.70;;;20.40;47.60;;;;;;4984185;28;20453;-64
2023/03/12 09:45:31;;;;;;;0.93;0.63;;;20.40;47.60;;;;;;4984439;28;20491;-65
2023/03/12 09:48:02;;;;;;;0.88;0.70;;;20.40;47.60;;;;;;4984594;28;20427;-65
2023/03/12 09:50:32;;;;;;;1.17;0.70;;;20.40;47.60;;;;;;4982678;28;20069;-65
2023/03/12 09:53:11;;;;;;;1.33;0.80;;;20.40;47.70;;;;;;4982192;28;20537;-65
2023/03/12 09:55:39;;;;;;;2.28;0.80;;;20.40;47.80;;;;;;4981307;28;20087;-65
2023/03/12 09:58:29;;;;;;;0.80;0.80;;;20.40;47.80;;;;;;4984099;28;20477;-65
2023/03/12 10:01:24;;;;;;;1.40;0.77;;;20.40;47.90;;;;;;4984830;28;20399;-66
2023/03/12 10:04:24;;;;;;;1.15;0.80;;;20.40;47.80;;;;;;4980744;28;20439;-65
2023/03/12 10:07:14;;;;;;;1.30;0.90;;;20.30;47.90;;;;;;4983029;28;20102;-65
2023/03/12 10:10:12;;;;;;;1.33;0.93;;;20.30;47.80;;;;;;4981499;28;20037;-65
2023/03/12 10:12:57;;;;;;;1.95;0.90;;;20.30;47.90;;;;;;4971516;28;20555;-65
2023/03/12 10:15:42;;;;;;;1.30;0.80;;;20.30;47.80;;;;;;4985008;28;20425;-65
2023/03/12 10:18:24;;;;;;;1.77;0.90;;;20.30;48.00;;;;;;4982689;28;20069;-65
2023/03/12 10:21:00;;;;;;;1.58;0.80;;;20.30;48.10;;;;;;4982936;28;20030;-65
2023/03/12 10:23:37;;;;;;;1.67;0.90;;;20.30;48.10;;;;;;4984046;28;20448;-65
2023/03/12 10:26:24;;;;;;;2.22;0.93;;;20.30;48.10;;;;;;4981186;28;20499;-65
2023/03/12 10:28:56;;;;;;;1.95;1.13;;;20.30;48.30;;;;;;4986033;28;20034;-61
2023/03/12 10:31:30;;;;;;;2.65;1.90;;;20.30;48.40;;;;;;4984126;28;20371;-65
2023/03/12 10:34:01;;;;;;;2.75;1.90;;;20.30;48.70;;;;;;4984183;28;20044;-65
2023/03/12 10:36:35;;;;;;;3.38;2.05;;;20.30;48.80;;;;;;4982037;28;20053;-65
2023/03/12 10:39:01;;;;;;;3.45;2.55;;;20.30;48.90;;;;;;4981294;28;20414;-65
2023/03/12 10:41:29;;;;;;;5.68;4.20;;;20.30;48.90;;;;;;4982348;28;20362;-65
2023/03/12 10:44:01;;;;;;;9.20;5.97;;;20.30;49.50;;;;;;4980864;28;20105;-64
2023/03/12 10:46:58;;;;;;;9.57;7.40;;;20.30;49.00;;;;;;4981954;28;20059;-65
2023/03/12 10:49:31;;;;;;;15.55;10.20;;;20.30;49.10;;;;;;4980342;28;20035;-65
2023/03/12 10:52:04;;;;;;;18.92;13.10;;;20.30;49.20;;;;;;4981180;28;20139;-65
2023/03/12 10:54:39;;;;;;;20.83;13.70;;;20.30;49.20;;;;;;4982246;28;20367;-65
2023/03/12 10:57:05;;;;;;;19.55;14.35;;;20.30;49.20;;;;;;4982348;28;20052;-65
2023/03/12 10:59:34;;;;;;;19.73;13.40;;;20.30;49.50;;;;;;4983313;28;20594;-64
2023/03/12 11:02:01;;;;;;;20.27;14.70;;;20.40;49.40;;;;;;4979776;28;20026;-64
2023/03/12 11:04:30;;;;;;;24.73;18.38;;;20.50;49.50;;;;;;4984188;28;20447;-64
2023/03/12 11:07:13;;;;;;;23.75;17.02;;;20.60;49.30;;;;;;4998062;28;20395;-65
2023/03/12 11:09:39;;;;;;;20.85;15.15;;;20.70;49.20;;;;;;4982969;28;20257;-64
2023/03/12 11:12:27;;;;;;;19.27;13.70;;;20.90;49.10;;;;;;4983882;28;20109;-65
2023/03/12 11:14:53;;;;;;;18.52;13.10;;;21.00;48.90;;;;;;4982100;28;20056;-65
2023/03/12 11:17:22;;;;;;;18.20;13.38;;;21.10;48.90;;;;;;4981376;28;20053;-65
2023/03/12 11:19:48;;;;;;;23.30;16.05;;;21.10;49.00;;;;;;4982212;28;20022;-65
2023/03/12 11:22:27;;;;;;;25.40;18.52;;;21.20;48.40;;;;;;4980508;28;20221;-65
2023/03/12 11:24:58;;;;;;;26.55;17.42;;;21.30;48.40;;;;;;4996468;28;20069;-65
2023/03/12 11:27:53;;;;;;;25.60;17.55;;;21.40;48.40;;;;;;4985971;28;20026;-66
2023/03/12 11:30:26;;;;;;;24.58;17.25;;;21.50;48.00;;;;;;4982418;28;20821;-65
2023/03/12 11:32:52;;;;;;;25.35;17.95;;;21.50;47.90;;;;;;4982050;28;20489;-64
2023/03/12 11:35:49;;;;;;;20.98;15.23;;;21.60;47.80;;;;;;4980660;28;20026;-65
2023/03/12 11:38:18;;;;;;;23.25;16.88;;;21.70;47.60;;;;;;4983953;28;20406;-65
2023/03/12 11:40:58;;;;;;;24.05;17.10;;;21.70;47.40;;;;;;4981379;28;20022;-65
2023/03/12 11:43:43;;;;;;;23.13;16.42;;;21.70;47.30;;;;;;4980606;28;20051;-65
2023/03/12 11:46:26;;;;;;;22.45;15.88;;;21.60;47.30;;;;;;4982918;28;20030;-65
2023/03/12 11:49:06;;;;;;;23.70;15.82;;;21.70;47.40;;;;;;4982075;28;20030;-66
2023/03/12 11:51:56;;;;;;;21.08;14.93;;;21.70;47.40;;;;;;4978866;28;20521;-65
2023/03/12 11:54:43;;;;;;;23.60;15.45;;;21.60;47.40;;;;;;4978215;28;20058;-65
2023/03/12 11:57:29;;;;;;;23.42;16.23;;;21.60;47.40;;;;;;4979381;28;20027;-64
2023/03/12 11:59:54;;;;;;;23.63;15.85;;;21.60;47.40;;;;;;4981977;28;20098;-65
2023/03/12 12:02:26;;;;;;;21.80;15.65;;;21.60;47.30;;;;;;4983626;28;20475;-65
2023/03/12 12:05:10;;;;;;;21.55;14.88;;;21.60;47.30;;;;;;4990695;28;20029;-64
2023/03/12 12:07:51;;;;;;;23.05;15.50;;;21.60;47.50;;;;;;4981968;28;20647;-65
2023/03/12 12:10:25;;;;;;;20.52;13.93;;;21.70;47.60;;;;;;4984884;28;20076;-65
2023/03/12 12:13:42;;;;;;;17.98;12.48;;;21.70;47.40;;;;;;4984394;28;20041;-65
2023/03/12 12:16:17;;;;;;;17.48;12.02;;;21.80;47.50;;;;;;4965629;28;20569;-64
2023/03/12 12:18:45;;;;;;;17.70;10.95;;;21.90;47.30;;;;;;4985768;28;20593;-65
2023/03/12 12:21:40;;;;;;;15.60;10.20;;;22.00;47.30;;;;;;4985934;28;20033;-65
2023/03/12 12:24:36;;;;;;;13.65;10.35;;;22.00;47.20;;;;;;4987900;28;20029;-64
2023/03/12 12:27:22;;;;;;;22.27;15.18;;;22.10;47.00;;;;;;4982825;28;20130;-65
2023/03/12 12:30:06;;;;;;;22.40;14.95;;;22.30;46.80;;;;;;4985238;28;20426;-65
2023/03/12 12:32:47;;;;;;;22.90;14.85;;;22.50;46.50;;;;;;4981589;28;20030;-66
2023/03/12 12:35:31;;;;;;;18.52;13.40;;;22.60;46.20;;;;;;4988091;28;20035;-65
2023/03/12 12:38:05;;;;;;;20.75;12.93;;;22.70;45.90;;;;;;4984026;28;20052;-65
2023/03/12 12:40:36;;;;;;;23.17;13.63;;;22.90;45.80;;;;;;4985583;28;20057;-65
2023/03/12 12:43:15;;;;;;;19.30;11.93;;;23.00;45.50;;;;;;4984423;28;20034;-66
2023/03/12 12:45:42;;;;;;;;;;;23.10;45.30;;;;;;4999762;28;20026;-65
2023/03/12 12:48:39;;;;;;;17.58;11.63;;;23.20;45.10;;;;;;4983272;28;20289;-65
2023/03/12 12:51:06;;;;;;;14.68;9.63;;;23.30;45.00;;;;;;4981834;28;20133;-65
2023/03/12 12:53:42;;;;;;;12.95;8.73;;;23.30;45.10;;;;;;4978889;28;20482;-65
2023/03/12 12:56:19;;;;;;;17.33;10.63;;;23.20;45.10;;;;;;4984085;28;20137;-65